createdAt,value
2022-08-09T00:00:00.900Z,99218.00
2022-08-09T00:02:31.978Z,99219.94
2022-08-09T00:05:03.699Z,99223.53
2022-08-09T00:07:47.034Z,99217.16
2022-08-09T00:10:21.217Z,99211.63
2022-08-09T00:12:52.631Z,99217.16
2022-08-09T00:15:26.515Z,99225.47
2022-08-09T00:18:11.922Z,99223.78
2022-08-09T00:20:42.242Z,99218.25
2022-08-09T00:23:57.598Z,99229.56
2022-08-09T00:26:11.386Z,99221.59
2022-08-09T00:28:40.987Z,99219.06
2022-08-09T00:31:55.834Z,99232.63
2022-08-09T00:33:55.869Z,99227.09
2022-08-09T00:36:29.625Z,99218.22
2022-08-09T00:38:58.637Z,99225.44
2022-08-09T00:44:16.376Z,99224.56
2022-08-09T00:44:25.706Z,99237.56
2022-08-09T00:47:05.565Z,99234.78
2022-08-09T00:49:36.671Z,99232.31
2022-08-09T00:52:06.163Z,99238.66
2022-08-09T00:54:43.263Z,99243.38
2022-08-09T00:57:12.387Z,99244.47
2022-08-09T00:59:47.009Z,99238.94
2022-08-09T01:02:22.823Z,99234.78
2022-08-09T01:05:02.913Z,99241.97
2022-08-09T01:08:01.112Z,99243.06
2022-08-09T01:10:36.512Z,99239.78
2022-08-09T01:13:53.477Z,99246.97
2022-08-09T01:16:31.300Z,99246.97
2022-08-09T01:19:04.915Z,99234.25
2022-08-09T01:21:53.734Z,99228.72
2022-08-09T01:24:39.832Z,99239.78
2022-08-09T01:27:15.635Z,99239.78
2022-08-09T01:29:55.191Z,99239.19
2022-08-09T01:32:31.873Z,99237.28
2022-08-09T01:35:28.239Z,99232.00
2022-08-09T01:38:07.968Z,99245.03
2022-08-09T01:40:37.627Z,99242.53
2022-08-09T01:43:04.930Z,99241.94
2022-08-09T01:45:33.690Z,99239.19
2022-08-09T01:48:05.998Z,99241.16
2022-08-09T01:50:37.073Z,99240.84
2022-08-09T01:53:19.409Z,99245.53
2022-08-09T01:55:47.484Z,99241.94
2022-08-09T01:58:14.815Z,99243.63
2022-08-09T02:00:50.356Z,99240.31
2022-08-09T02:03:17.865Z,99250.25
2022-08-09T02:06:03.951Z,99241.16
2022-08-09T02:08:39.697Z,99253.28
2022-08-09T02:11:19.534Z,99257.16
2022-08-09T02:13:55.382Z,99252.72
2022-08-09T02:16:52.853Z,99252.19
2022-08-09T02:19:23.143Z,99253.00
2022-08-09T02:21:55.505Z,99255.78
2022-08-09T02:24:26.189Z,99248.84
2022-08-09T02:26:55.551Z,99246.09
2022-08-09T02:29:27.646Z,99254.38
2022-08-09T02:32:01.891Z,99248.00
2022-08-09T02:34:40.260Z,99249.09
2022-08-09T02:37:15.636Z,99253.00
2022-08-09T02:39:55.315Z,99245.53
2022-08-09T02:42:32.869Z,99253.53
2022-08-09T02:45:07.042Z,99242.78
2022-08-09T02:47:58.022Z,99251.88
2022-08-09T02:50:27.866Z,99248.56
2022-08-09T02:52:58.650Z,99245.22
2022-08-09T02:55:46.503Z,99241.94
2022-08-09T02:58:32.780Z,99242.75
2022-08-09T03:01:04.055Z,99251.88
2022-08-09T03:04:13.327Z,99239.16
2022-08-09T03:06:18.909Z,99245.78
2022-08-09T03:08:49.255Z,99253.25
2022-08-09T03:11:30.112Z,99253.50
2022-08-09T03:14:04.750Z,99257.38
2022-08-09T03:16:32.174Z,99255.47
2022-08-09T03:19:01.606Z,99262.63
2022-08-09T03:21:36.597Z,99257.38
2022-08-09T03:24:06.920Z,99251.88
2022-08-09T03:26:37.265Z,99258.22
2022-08-09T03:29:13.443Z,99258.22
2022-08-09T03:31:59.637Z,99255.97
2022-08-09T03:34:28.175Z,99257.06
2022-08-09T03:36:59.485Z,99255.44
2022-08-09T03:39:38.060Z,99258.47
2022-08-09T03:42:06.468Z,99257.63
2022-08-09T03:44:34.053Z,99258.47
2022-08-09T03:47:01.135Z,99255.69
2022-08-09T03:49:32.912Z,99254.59
2022-08-09T03:52:03.837Z,99261.22
2022-08-09T03:54:38.472Z,99252.94
2022-08-09T03:57:17.960Z,99263.16
2022-08-09T03:59:55.036Z,99258.47
2022-08-09T04:02:26.492Z,99257.63
2022-08-09T04:04:56.366Z,99258.47
2022-08-09T04:07:47.454Z,99256.25
2022-08-09T04:10:12.738Z,99259.28
2022-08-09T04:12:47.637Z,99258.44
2022-08-09T04:15:42.698Z,99259.53
2022-08-09T04:18:05.414Z,99268.09
2022-08-09T04:20:33.944Z,99268.09
2022-08-09T04:23:01.914Z,99264.75
2022-08-09T04:25:29.514Z,99267.28
2022-08-09T04:28:02.561Z,99275.56
2022-08-09T04:30:32.183Z,99274.72
2022-08-09T04:33:01.247Z,99272.50
2022-08-09T04:35:29.217Z,99273.31
2022-08-09T04:37:56.571Z,99274.16
2022-08-09T04:40:36.016Z,99275.28
2022-08-09T04:43:04.083Z,99269.19
2022-08-09T04:45:36.016Z,99275.28
2022-08-09T04:48:19.829Z,99265.59
2022-08-09T04:50:46.885Z,99271.66
2022-08-09T04:53:17.184Z,99274.69
2022-08-09T04:55:58.907Z,99282.97
2022-08-09T04:58:31.614Z,99290.44
2022-08-09T05:01:00.518Z,99292.34
2022-08-09T05:03:40.480Z,99291.25
2022-08-09T05:06:26.771Z,99288.75
2022-08-09T05:09:00.201Z,99285.75
2022-08-09T05:11:30.400Z,99292.09
2022-08-09T05:14:00.197Z,99285.75
2022-08-09T05:16:28.570Z,99295.41
2022-08-09T05:18:59.974Z,99297.06
2022-08-09T05:21:29.964Z,99293.75
2022-08-09T05:24:01.193Z,99300.63
2022-08-09T05:26:37.192Z,99293.75
2022-08-09T05:29:23.961Z,99296.53
2022-08-09T05:31:57.240Z,99302.31
2022-08-09T05:34:30.736Z,99309.22
2022-08-09T05:37:06.182Z,99306.44
2022-08-09T05:39:43.397Z,99301.50
2022-08-09T05:42:20.539Z,99299.56
2022-08-09T05:44:58.072Z,99301.25
2022-08-09T05:47:30.252Z,99297.34
2022-08-09T05:50:30.448Z,99306.47
2022-08-09T05:52:53.649Z,99310.06
2022-08-09T05:55:24.053Z,99300.69
2022-08-09T05:57:57.652Z,99306.22
2022-08-09T06:00:29.526Z,99302.63
2022-08-09T06:02:58.499Z,99303.72
2022-08-09T06:05:50.179Z,99308.97
2022-08-09T06:08:14.009Z,99304.28
2022-08-09T06:10:47.143Z,99307.06
2022-08-09T06:13:18.735Z,99315.06
2022-08-09T06:15:47.810Z,99304.28
2022-08-09T06:18:19.887Z,99310.34
2022-08-09T06:20:54.875Z,99311.19
2022-08-09T06:23:57.223Z,99307.59
2022-08-09T06:26:20.264Z,99308.16
2022-08-09T06:29:01.018Z,99306.25
2022-08-09T06:31:40.315Z,99315.38
2022-08-09T06:34:20.281Z,99315.38
2022-08-09T06:36:50.438Z,99313.69
2022-08-09T06:39:38.873Z,99308.16
2022-08-09T06:42:13.295Z,99307.91
2022-08-09T06:44:40.378Z,99313.44
2022-08-09T06:47:08.427Z,99311.50
2022-08-09T06:50:12.083Z,99309.53
2022-08-09T06:52:23.514Z,99318.97
2022-08-09T06:54:52.271Z,99318.16
2022-08-09T06:57:42.728Z,99306.28
2022-08-09T07:00:50.661Z,99312.63
2022-08-09T07:02:59.042Z,99307.09
2022-08-09T07:06:02.217Z,99314.25
2022-08-09T07:08:13.430Z,99312.34
2022-08-09T07:10:40.616Z,99317.03
2022-08-09T07:13:27.633Z,99315.94
2022-08-09T07:16:41.668Z,99310.41
2022-08-09T07:18:41.880Z,99319.78
2022-08-09T07:21:10.308Z,99320.91
2022-08-09T07:23:56.640Z,99317.03
2022-08-09T07:26:25.815Z,99325.06
2022-08-09T07:29:12.146Z,99326.97
2022-08-09T07:31:45.452Z,99323.13
2022-08-09T07:34:20.339Z,99328.66
2022-08-09T07:36:49.594Z,99323.13
2022-08-09T07:39:20.370Z,99323.97
2022-08-09T07:42:05.008Z,99328.66
2022-08-09T07:44:52.424Z,99329.47
2022-08-09T07:47:19.606Z,99329.47
2022-08-09T07:50:05.194Z,99333.09
2022-08-09T07:52:35.882Z,99333.09
2022-08-09T07:55:08.923Z,99334.75
2022-08-09T07:57:37.272Z,99333.63
2022-08-09T08:00:20.562Z,99329.78
2022-08-09T08:03:04.473Z,99328.94
2022-08-09T08:05:53.437Z,99333.63
2022-08-09T08:09:00.804Z,99324.25
2022-08-09T08:12:09.369Z,99338.06
2022-08-09T08:13:56.743Z,99333.38
2022-08-09T08:16:31.876Z,99327.59
2022-08-09T08:18:59.772Z,99332.28
2022-08-09T08:21:30.697Z,99322.88
2022-08-09T08:24:01.091Z,99333.94
2022-08-09T08:26:54.674Z,99340.25
2022-08-09T08:29:27.797Z,99330.88
2022-08-09T08:32:03.435Z,99348.28
2022-08-09T08:34:33.585Z,99345.53
2022-08-09T08:37:02.505Z,99346.38
2022-08-09T08:39:38.265Z,99343.59
2022-08-09T08:42:11.539Z,99342.50
2022-08-09T08:44:39.437Z,99339.75
2022-08-09T08:47:13.029Z,99341.41
2022-08-09T08:49:47.720Z,99338.66
2022-08-09T08:52:52.707Z,99343.06
2022-08-09T08:55:07.581Z,99345.81
2022-08-09T08:57:35.936Z,99347.50
2022-08-09T09:00:12.692Z,99345.56
2022-08-09T09:02:46.867Z,99321.78
2022-08-09T09:05:33.076Z,99341.69
2022-08-09T09:08:29.366Z,99348.91
2022-08-09T09:10:56.899Z,99331.47
2022-08-09T09:13:24.668Z,99331.47
2022-08-09T09:16:09.392Z,99337.84
2022-08-09T09:18:36.910Z,99336.72
2022-08-09T09:21:07.140Z,99349.44
2022-08-09T09:23:49.713Z,99336.47
2022-08-09T09:26:26.119Z,99342.00
2022-08-09T09:29:04.576Z,99342.00
2022-08-09T09:32:05.954Z,99338.13
2022-08-09T09:34:25.447Z,99350.00
2022-08-09T09:36:56.895Z,99341.44
2022-08-09T09:39:42.658Z,99351.41
2022-08-09T09:42:30.758Z,99341.44
2022-08-09T09:45:06.349Z,99348.63
2022-08-09T09:47:42.254Z,99348.63
2022-08-09T09:50:39.513Z,99347.53
2022-08-09T09:53:18.051Z,99340.91
2022-08-09T09:56:04.102Z,99334.25
2022-08-09T09:58:46.286Z,99334.25
2022-08-09T10:01:31.013Z,99331.25
2022-08-09T10:04:09.430Z,99334.84
2022-08-09T10:06:42.681Z,99334.84
2022-08-09T10:09:12.058Z,99340.38
2022-08-09T10:12:11.937Z,99320.19
2022-08-09T10:14:47.738Z,99326.53
2022-08-09T10:17:39.318Z,99329.31
2022-08-09T10:20:10.823Z,99325.44
2022-08-09T10:22:42.414Z,99314.41
2022-08-09T10:25:12.158Z,99316.03
2022-08-09T10:27:55.910Z,99325.16
2022-08-09T10:33:29.349Z,99316.63
2022-08-09T10:36:09.747Z,99317.22
2022-08-09T10:38:56.141Z,99318.00
2022-08-09T10:41:27.915Z,99305.03
2022-08-09T10:43:59.186Z,99312.47
2022-08-09T10:47:01.409Z,99310.56
2022-08-09T10:49:50.283Z,99316.09
2022-08-09T10:52:26.447Z,99298.41
2022-08-09T10:54:53.836Z,99300.06
2022-08-09T10:57:21.779Z,99295.38
2022-08-09T10:59:57.814Z,99290.69
2022-08-09T11:03:15.933Z,99297.84
2022-08-09T11:05:30.019Z,99307.81
2022-08-09T11:07:59.883Z,99302.28
2022-08-09T11:10:53.171Z,99311.16
2022-08-09T11:13:49.854Z,99307.56
2022-08-09T11:16:37.021Z,99305.63
2022-08-09T11:19:09.663Z,99291.78
2022-08-09T11:21:55.150Z,99294.25
2022-08-09T11:25:04.002Z,99284.34
2022-08-09T11:28:05.275Z,99288.47
2022-08-09T11:30:33.779Z,99283.78
2022-08-09T11:33:04.808Z,99289.06
2022-08-09T11:35:54.978Z,99290.97
2022-08-09T11:38:34.900Z,99289.06
2022-08-09T11:41:13.138Z,99278.81
2022-08-09T11:43:49.055Z,99286.00
2022-08-09T11:46:26.500Z,99283.22
2022-08-09T11:49:00.131Z,99287.66
2022-08-09T11:52:54.108Z,99286.81
2022-08-09T11:54:27.500Z,99287.66
2022-08-09T11:56:55.336Z,99288.50
2022-08-09T11:59:30.504Z,99294.84
2022-08-09T12:02:16.222Z,99286.56
2022-08-09T12:04:45.952Z,99287.38
2022-08-09T12:07:14.348Z,99287.38
2022-08-09T12:09:50.962Z,99283.78
2022-08-09T12:12:28.595Z,99286.28
2022-08-09T12:15:08.337Z,99286.56
2022-08-09T12:17:43.259Z,99282.41
2022-08-09T12:20:21.694Z,99282.41
2022-08-09T12:22:59.629Z,99287.94
2022-08-09T12:25:35.914Z,99282.41
2022-08-09T12:28:58.182Z,99279.38
2022-08-09T12:31:10.634Z,99279.38
2022-08-09T12:33:58.541Z,99277.44
2022-08-09T12:36:33.511Z,99284.91
2022-08-09T12:39:01.051Z,99285.75
2022-08-09T12:41:38.162Z,99287.41
2022-08-09T12:44:07.978Z,99290.16
2022-08-09T12:46:37.597Z,99292.63
2022-08-09T12:49:04.635Z,99282.72
2022-08-09T12:51:52.676Z,99291.81
2022-08-09T12:54:19.155Z,99294.56
2022-08-09T12:56:51.309Z,99294.56
2022-08-09T12:59:22.901Z,99290.72
2022-08-09T13:02:09.309Z,99286.28
2022-08-09T13:04:38.789Z,99281.59
2022-08-09T13:07:14.963Z,99282.41
2022-08-09T13:09:52.819Z,99283.25
2022-08-09T13:12:23.314Z,99278.81
2022-08-09T13:14:54.111Z,99278.81
2022-08-09T13:17:44.001Z,99279.66
2022-08-09T13:20:17.518Z,99275.22
2022-08-09T13:23:05.148Z,99279.66
2022-08-09T13:25:52.875Z,99268.59
2022-08-09T13:28:34.717Z,99269.41
2022-08-09T13:32:20.387Z,99277.72
2022-08-09T13:33:59.062Z,99275.78
2022-08-09T13:36:41.400Z,99275.78
2022-08-09T13:41:46.067Z,99271.09
2022-08-09T13:42:06.289Z,99271.94
2022-08-09T13:44:42.161Z,99266.41
2022-08-09T13:47:31.377Z,99266.41
2022-08-09T13:50:07.873Z,99264.72
2022-08-09T13:52:40.356Z,99274.41
2022-08-09T13:55:13.506Z,99270.81
2022-08-09T13:57:56.168Z,99270.00
2022-08-09T14:00:27.342Z,99279.13
2022-08-09T14:03:03.366Z,99278.00
2022-08-09T14:06:00.433Z,99281.59
2022-08-09T14:08:30.231Z,99281.34
2022-08-09T14:10:57.621Z,99274.97
2022-08-09T14:14:15.539Z,99283.28
2022-08-09T14:16:18.743Z,99279.66
2022-08-09T14:18:49.610Z,99279.66
2022-08-09T14:21:22.644Z,99274.97
2022-08-09T14:23:55.284Z,99275.81
2022-08-09T14:26:32.720Z,99289.34
2022-08-09T14:29:08.355Z,99279.94
2022-08-09T14:31:53.991Z,99282.44
2022-08-09T14:34:30.891Z,99284.09
2022-08-09T14:37:06.140Z,99273.84
2022-08-09T14:39:47.373Z,99280.22
2022-08-09T14:42:28.817Z,99279.38
2022-08-09T14:46:39.492Z,99276.34
2022-08-09T14:47:58.925Z,99280.78
2022-08-09T14:50:30.352Z,99283.53
2022-08-09T14:52:58.000Z,99281.31
2022-08-09T14:55:25.144Z,99271.38
2022-08-09T14:57:52.238Z,99276.09
2022-08-09T15:00:22.298Z,99279.69
2022-08-09T15:02:51.760Z,99278.84
2022-08-09T15:05:19.400Z,99275.78
2022-08-09T15:07:54.808Z,99274.16
2022-08-09T15:10:25.029Z,99275.78
2022-08-09T15:12:55.887Z,99275.00
2022-08-09T15:15:23.321Z,99266.38
2022-08-09T15:17:52.910Z,99271.66
2022-08-09T15:21:57.166Z,99269.72
2022-08-09T15:24:02.570Z,99275.53
2022-08-09T15:25:57.696Z,99275.53
2022-08-09T15:28:27.669Z,99272.50
2022-08-09T15:31:07.387Z,99264.72
2022-08-09T15:34:17.199Z,99262.53
2022-08-09T15:36:29.034Z,99262.53
2022-08-09T15:38:58.889Z,99272.50
2022-08-09T15:41:31.508Z,99275.78
2022-08-09T15:44:02.853Z,99273.03
2022-08-09T15:46:33.639Z,99273.88
2022-08-09T15:49:22.272Z,99275.78
2022-08-09T15:52:03.423Z,99270.25
2022-08-09T15:54:49.154Z,99269.16
2022-08-09T15:57:35.816Z,99266.41
2022-08-09T16:00:14.119Z,99267.50
2022-08-09T16:02:53.748Z,99271.94
2022-08-09T16:05:22.115Z,99274.69
2022-08-09T16:07:50.700Z,99273.03
2022-08-09T16:10:55.510Z,99267.50
2022-08-09T16:13:18.523Z,99265.84
2022-08-09T16:16:04.835Z,99271.38
2022-08-09T16:18:35.339Z,99268.91
2022-08-09T16:21:02.431Z,99273.59
2022-08-09T16:23:29.503Z,99285.50
2022-08-09T16:26:01.041Z,99277.47
2022-08-09T16:28:30.299Z,99278.56
2022-08-09T16:30:59.672Z,99273.03
2022-08-09T16:33:27.546Z,99276.91
2022-08-09T16:36:01.935Z,99279.66
2022-08-09T16:38:36.985Z,99285.19
2022-08-09T16:41:05.397Z,99278.03
2022-08-09T16:43:40.277Z,99279.97
2022-08-09T16:46:08.126Z,99285.19
2022-08-09T16:48:54.775Z,99286.59
2022-08-09T16:51:25.161Z,99281.91
2022-08-09T16:54:25.304Z,99279.13
2022-08-09T16:56:49.323Z,99283.00
2022-08-09T16:59:16.736Z,99289.63
2022-08-09T17:01:51.098Z,99289.63
2022-08-09T17:04:25.749Z,99290.75
2022-08-09T17:08:41.697Z,99296.28
2022-08-09T17:09:45.159Z,99297.38
2022-08-09T17:12:14.406Z,99299.84
2022-08-09T17:14:48.094Z,99293.50
2022-08-09T17:17:23.699Z,99299.03
2022-08-09T17:20:33.218Z,99302.91
2022-08-09T17:22:49.757Z,99301.25
2022-08-09T17:25:19.140Z,99301.25
2022-08-09T17:27:49.435Z,99300.41
2022-08-09T17:30:22.549Z,99305.09
2022-08-09T17:32:53.358Z,99317.84
2022-08-09T17:35:20.507Z,99312.88
2022-08-09T17:38:02.655Z,99307.34
2022-08-09T17:40:35.517Z,99312.03
2022-08-09T17:43:32.833Z,99313.97
2022-08-09T17:46:03.011Z,99312.88
2022-08-09T17:48:38.471Z,99307.34
2022-08-09T17:51:18.709Z,99315.63
2022-08-09T17:53:53.385Z,99320.34
2022-08-09T17:56:27.137Z,99316.72
2022-08-09T17:58:58.577Z,99322.25
2022-08-09T18:02:03.459Z,99319.50
2022-08-09T18:04:13.910Z,99323.38
2022-08-09T18:06:49.727Z,99324.19
2022-08-09T18:09:23.273Z,99320.59
2022-08-09T18:12:05.352Z,99322.53
2022-08-09T18:14:42.207Z,99331.66
2022-08-09T18:17:19.060Z,99326.13
2022-08-09T18:20:56.441Z,99340.22
2022-08-09T18:22:44.147Z,99336.66
2022-08-09T18:25:18.141Z,99346.03
2022-08-09T18:28:03.822Z,99348.81
2022-08-09T18:30:37.730Z,99353.25
2022-08-09T18:33:15.423Z,99352.13
2022-08-09T18:35:59.032Z,99360.16
2022-08-09T18:38:27.520Z,99355.44
2022-08-09T18:40:55.790Z,99361.81
2022-08-09T18:43:24.954Z,99360.97
2022-08-09T18:46:47.909Z,99367.63
2022-08-09T18:48:39.221Z,99365.97
2022-08-09T18:51:09.618Z,99365.97
2022-08-09T18:54:01.888Z,99368.47
2022-08-09T18:56:27.864Z,99373.16
2022-08-09T18:58:57.125Z,99367.34
2022-08-09T19:01:24.989Z,99372.06
2022-08-09T19:03:54.553Z,99370.97
2022-08-09T19:06:34.111Z,99370.13
2022-08-09T19:09:02.535Z,99366.22
2022-08-09T19:11:37.914Z,99373.44
2022-08-09T19:14:06.953Z,99372.06
2022-08-09T19:16:36.598Z,99374.53
2022-08-09T19:19:26.066Z,99375.38
2022-08-09T19:22:06.581Z,99378.72
2022-08-09T19:25:07.444Z,99379.53
2022-08-09T19:27:22.705Z,99380.38
2022-08-09T19:30:21.119Z,99381.19
2022-08-09T19:32:37.203Z,99380.38
2022-08-09T19:35:04.904Z,99380.38
2022-08-09T19:37:41.171Z,99378.72
2022-08-09T19:40:19.805Z,99374.00
2022-08-09T19:42:48.985Z,99367.09
2022-08-09T19:45:17.048Z,99378.16
2022-08-09T19:47:44.916Z,99375.13
2022-08-09T19:50:50.774Z,99368.75
2022-08-09T19:53:04.466Z,99369.28
2022-08-09T19:56:02.853Z,99374.81
2022-08-09T19:58:29.833Z,99378.16
2022-08-09T20:00:57.821Z,99384.53
2022-08-09T20:04:11.625Z,99385.34
2022-08-09T20:06:23.505Z,99391.41
2022-08-09T20:08:52.537Z,99388.13
2022-08-09T20:11:42.782Z,99389.50
2022-08-09T20:14:16.696Z,99387.03
2022-08-09T20:16:53.169Z,99396.16
2022-08-09T20:19:47.422Z,99391.41
2022-08-09T20:22:09.712Z,99391.16
2022-08-09T20:24:37.183Z,99380.94
2022-08-09T20:27:08.848Z,99389.22
2022-08-09T20:29:39.073Z,99393.66
2022-08-09T20:32:30.205Z,99397.53
2022-08-09T20:34:55.023Z,99392.81
2022-08-09T20:37:22.554Z,99392.81
2022-08-09T20:40:16.793Z,99392.00
2022-08-09T20:42:37.993Z,99397.53
2022-08-09T20:45:57.398Z,99401.41
2022-08-09T20:47:53.137Z,99395.31
2022-08-09T20:50:47.510Z,99398.09
2022-08-09T20:53:18.732Z,99399.72
2022-08-09T20:56:01.140Z,99398.63
2022-08-09T20:58:32.593Z,99394.75
2022-08-09T21:01:14.188Z,99405.81
2022-08-09T21:04:08.430Z,99393.91
2022-08-09T21:06:37.338Z,99398.63
2022-08-09T21:09:11.652Z,99401.38
2022-08-09T21:14:31.143Z,99405.28
2022-08-09T21:17:00.079Z,99401.94
2022-08-09T21:20:19.346Z,99404.69
2022-08-09T21:22:36.090Z,99404.97
2022-08-09T21:25:20.823Z,99403.34
2022-08-09T21:27:52.733Z,99408.28
2022-08-09T21:30:22.334Z,99408.28
2022-08-09T21:32:53.210Z,99411.31
2022-08-09T21:35:21.587Z,99414.09
2022-08-09T21:37:58.702Z,99413.25
2022-08-09T21:40:30.122Z,99410.78
2022-08-09T21:43:01.218Z,99409.69
2022-08-09T21:45:28.856Z,99408.84
2022-08-09T21:47:58.285Z,99411.63
2022-08-09T21:50:38.618Z,99406.34
2022-08-09T21:53:06.875Z,99408.28
2022-08-09T21:55:47.096Z,99411.31
2022-08-09T21:58:15.421Z,99419.59
2022-08-09T22:00:42.584Z,99408.84
2022-08-09T22:03:19.299Z,99403.31
2022-08-09T22:05:46.901Z,99409.09
2022-08-09T22:08:18.722Z,99405.50
2022-08-09T22:11:49.389Z,99400.25
2022-08-09T22:13:36.620Z,99400.25
2022-08-09T22:16:08.345Z,99398.59
2022-08-09T22:18:52.204Z,99403.28
2022-08-09T22:21:24.075Z,99395.25
2022-08-09T22:23:59.464Z,99392.47
2022-08-09T22:26:35.306Z,99390.81
2022-08-09T22:29:09.256Z,99393.56
2022-08-09T22:31:38.061Z,99397.47
2022-08-09T22:34:14.769Z,99390.28
2022-08-09T22:36:46.396Z,99394.13
2022-08-09T22:39:20.507Z,99392.47
2022-08-09T22:42:02.887Z,99397.16
2022-08-09T22:44:33.037Z,99389.16
2022-08-09T22:48:17.012Z,99393.03
2022-08-09T22:49:51.795Z,99391.34
2022-08-09T22:52:19.891Z,99398.56
2022-08-09T22:54:47.748Z,99391.34
2022-08-09T22:57:15.180Z,99388.88
2022-08-09T22:59:55.715Z,99392.47
2022-08-09T23:02:25.597Z,99389.97
2022-08-09T23:04:55.284Z,99394.41
2022-08-09T23:08:22.531Z,99390.81
2022-08-09T23:10:31.818Z,99391.06
2022-08-09T23:12:59.177Z,99389.41
2022-08-09T23:15:27.139Z,99391.34
2022-08-09T23:17:54.308Z,99390.53
2022-08-09T23:20:21.445Z,99388.03
2022-08-09T23:22:48.597Z,99388.03
2022-08-09T23:25:15.635Z,99385.25
2022-08-09T23:27:58.443Z,99383.59
2022-08-09T23:30:30.507Z,99385.53
2022-08-09T23:32:57.597Z,99383.59
2022-08-09T23:35:24.706Z,99386.34
2022-08-09T23:37:51.793Z,99381.94
2022-08-09T23:40:18.926Z,99386.63
2022-08-09T23:42:46.152Z,99381.09
2022-08-09T23:45:37.183Z,99390.50
2022-08-09T23:48:01.815Z,99388.59
2022-08-09T23:50:30.428Z,99382.47
2022-08-09T23:52:57.736Z,99381.63
2022-08-09T23:55:24.830Z,99391.88
2022-08-09T23:58:07.254Z,99388.56
